Time;durP1;ratioP1;P1;durP2;ratioP2;P2;SDS_P1;SDS_P2;PMS_P1;PMS_P2;Temp;Humidity;BMP_temperature;BMP_pressure;BME280_temperature;BME280_humidity;BME280_pressure;Samples;Min_cycle;Max_cycle;Signal;HPM_P1;HPM_P2
2023/03/28 00:01:39;;;;;;;5.60;2.33;;;7.80;99.90;;;;;;4991694;28;20179;-68
2023/03/28 00:04:04;;;;;;;11.47;2.57;;;7.70;99.90;;;;;;4990585;28;20631;-69
2023/03/28 00:06:31;;;;;;;10.43;2.67;;;7.80;99.90;;;;;;4990203;28;20715;-69
2023/03/28 00:08:57;;;;;;;12.07;3.33;;;7.90;99.90;;;;;;4990398;28;20187;-69
2023/03/28 00:11:22;;;;;;;9.07;2.67;;;7.90;99.90;;;;;;4987479;28;20618;-68
2023/03/28 00:13:59;;;;;;;8.77;2.80;;;7.90;99.90;;;;;;4977667;28;20179;-68
2023/03/28 00:16:30;;;;;;;10.77;2.60;;;7.90;99.90;;;;;;4990426;28;20218;-69
2023/03/28 00:18:59;;;;;;;7.57;2.30;;;7.90;99.90;;;;;;4991499;28;20194;-69
2023/03/28 00:21:31;;;;;;;8.07;2.47;;;8.00;99.90;;;;;;4991397;28;20178;-69
2023/03/28 00:24:00;;;;;;;13.07;2.90;;;7.80;99.90;;;;;;4990671;28;20179;-69
2023/03/28 00:26:34;;;;;;;8.77;2.83;;;7.50;99.90;;;;;;4990171;28;20206;-71
2023/03/28 00:29:01;;;;;;;10.43;2.30;;;7.90;99.90;;;;;;4990989;28;20652;-69
2023/03/28 00:31:27;;;;;;;13.90;2.43;;;;;;;;;;4992305;28;20182;-69
2023/03/28 00:33:55;;;;;;;8.63;2.60;;;8.20;99.90;;;;;;4995281;28;20171;-68
2023/03/28 00:36:21;;;;;;;7.17;2.47;;;7.90;99.90;;;;;;4994453;28;20227;-68
2023/03/28 00:38:48;;;;;;;9.30;2.50;;;7.90;99.90;;;;;;4995287;28;20207;-69
2023/03/28 00:41:17;;;;;;;11.30;2.80;;;7.90;99.90;;;;;;4994196;28;20546;-69
2023/03/28 00:43:45;;;;;;;9.87;2.50;;;7.90;99.90;;;;;;4994809;28;20174;-69
2023/03/28 00:46:22;;;;;;;6.67;2.03;;;8.40;99.90;;;;;;4994482;28;20238;-70
2023/03/28 00:48:51;;;;;;;8.93;2.60;;;7.90;99.90;;;;;;4994915;28;20180;-69
2023/03/28 00:51:20;;;;;;;8.60;2.40;;;8.70;99.90;;;;;;4993661;28;20658;-69
2023/03/28 00:53:46;;;;;;;8.87;2.23;;;8.30;99.90;;;;;;4994736;28;20209;-68
2023/03/28 00:56:17;;;;;;;9.30;2.70;;;8.00;99.90;;;;;;4994481;28;20179;-68
2023/03/28 00:58:46;;;;;;;5.23;2.20;;;8.00;99.90;;;;;;4993857;28;20705;-68
2023/03/28 01:01:14;;;;;;;9.47;2.70;;;7.90;99.90;;;;;;4993361;28;20267;-68
2023/03/28 01:03:44;;;;;;;11.03;2.67;;;8.00;99.90;;;;;;4980622;28;20258;-68
2023/03/28 01:06:13;;;;;;;16.13;2.40;;;7.90;99.90;;;;;;4993753;28;20870;-69
2023/03/28 01:08:42;;;;;;;7.10;2.60;;;7.90;99.90;;;;;;4992862;28;20270;-71
2023/03/28 01:11:10;;;;;;;8.80;2.60;;;7.90;99.90;;;;;;4993653;28;20175;-69
2023/03/28 01:13:40;;;;;;;11.87;2.50;;;7.90;99.90;;;;;;4993168;28;20180;-69
2023/03/28 01:16:07;;;;;;;9.33;2.70;;;7.90;99.90;;;;;;4993353;28;20622;-70
2023/03/28 01:18:35;;;;;;;10.17;2.70;;;7.80;99.90;;;;;;4994400;28;20183;-69
2023/03/28 01:21:06;;;;;;;7.73;2.10;;;7.90;99.90;;;;;;4994501;28;20720;-69
2023/03/28 01:23:51;;;;;;;11.27;2.27;;;7.80;99.90;;;;;;4994699;28;20225;-69
2023/03/28 01:26:44;;;;;;;8.90;2.50;;;7.80;99.90;;;;;;4994155;28;20226;-70
2023/03/28 01:30:01;;;;;;;17.43;2.70;;;7.90;99.90;;;;;;4994425;28;20176;-69
2023/03/28 01:32:48;;;;;;;7.73;2.13;;;7.80;99.90;;;;;;4993265;28;20175;-68
2023/03/28 01:35:45;;;;;;;8.57;2.53;;;7.90;99.90;;;;;;4992907;28;20246;-68
2023/03/28 01:38:28;;;;;;;10.77;2.47;;;7.90;99.90;;;;;;4993714;28;20189;-68
2023/03/28 01:41:05;;;;;;;8.90;2.13;;;7.90;99.90;;;;;;4993634;28;20171;-68
2023/03/28 01:43:46;;;;;;;7.70;2.13;;;8.00;99.90;;;;;;4991769;28;20677;-68
2023/03/28 01:46:12;;;;;;;8.47;2.60;;;8.00;99.90;;;;;;4982853;28;20211;-68
2023/03/28 01:48:41;;;;;;;12.23;2.47;;;8.00;99.90;;;;;;4989598;28;20658;-68
2023/03/28 01:51:41;;;;;;;8.70;2.00;;;8.00;99.90;;;;;;4992674;28;20172;-68
2023/03/28 01:54:32;;;;;;;11.20;2.63;;;8.10;99.90;;;;;;4992892;28;20266;-68
2023/03/28 01:57:29;;;;;;;8.83;2.63;;;8.10;99.90;;;;;;4992744;28;20242;-67
2023/03/28 02:00:11;;;;;;;12.97;2.30;;;8.20;99.90;;;;;;4993279;28;20175;-67
2023/03/28 02:02:55;;;;;;;7.80;2.30;;;8.10;99.90;;;;;;4977303;28;20183;-67
2023/03/28 02:05:22;;;;;;;12.77;1.93;;;8.20;99.90;;;;;;4983622;28;20171;-67
2023/03/28 02:07:50;;;;;;;11.27;2.07;;;8.10;99.90;;;;;;4993250;28;20183;-66
2023/03/28 02:10:20;;;;;;;9.77;1.73;;;8.30;99.90;;;;;;4980096;28;20180;-67
2023/03/28 02:12:50;;;;;;;7.53;1.90;;;8.20;99.90;;;;;;4992654;28;20647;-67
2023/03/28 02:15:20;;;;;;;18.27;2.57;;;8.30;99.90;;;;;;4991878;28;20661;-66
2023/03/28 02:17:55;;;;;;;8.30;1.87;;;8.30;99.90;;;;;;4974014;28;20262;-66
2023/03/28 02:20:26;;;;;;;9.63;2.27;;;8.30;99.90;;;;;;4973165;28;20184;-68
2023/03/28 02:23:10;;;;;;;10.70;2.30;;;8.30;99.90;;;;;;4996593;28;20190;-68
2023/03/28 02:25:37;;;;;;;11.50;2.10;;;8.30;99.90;;;;;;4973298;28;20211;-68
2023/03/28 02:28:06;;;;;;;18.30;2.80;;;8.30;99.90;;;;;;4981718;28;20179;-68
2023/03/28 02:30:33;;;;;;;7.87;2.00;;;8.40;99.90;;;;;;4993114;28;20182;-66
2023/03/28 02:33:00;;;;;;;9.97;1.97;;;8.40;99.90;;;;;;4992558;28;20186;-67
2023/03/28 02:35:45;;;;;;;13.77;2.43;;;8.40;99.90;;;;;;4975220;28;20223;-67
2023/03/28 02:38:32;;;;;;;13.90;2.13;;;8.40;99.90;;;;;;4992255;28;20187;-67
2023/03/28 02:41:09;;;;;;;10.20;2.20;;;8.30;99.90;;;;;;4992163;28;20178;-67
2023/03/28 02:43:53;;;;;;;15.23;2.40;;;8.30;99.90;;;;;;4992001;28;20693;-67
2023/03/28 02:46:33;;;;;;;14.57;2.53;;;8.30;99.90;;;;;;4990883;28;20247;-67
2023/03/28 02:49:25;;;;;;;12.43;2.30;;;8.30;99.90;;;;;;4992195;28;20551;-67
2023/03/28 02:52:19;;;;;;;13.97;2.60;;;8.40;99.90;;;;;;4991624;28;20318;-67
2023/03/28 02:55:00;;;;;;;13.87;2.43;;;8.30;99.90;;;;;;4992212;28;20206;-67
2023/03/28 02:57:30;;;;;;;10.47;2.03;;;8.30;99.90;;;;;;4992299;28;20183;-67
2023/03/28 03:00:10;;;;;;;17.47;2.63;;;8.30;99.90;;;;;;4992422;28;20214;-67
2023/03/28 03:02:36;;;;;;;8.63;2.07;;;;;;;;;;4991556;28;20202;-67
2023/03/28 03:05:02;;;;;;;8.97;1.87;;;8.30;99.90;;;;;;4991703;28;20175;-67
2023/03/28 03:07:30;;;;;;;10.57;2.13;;;8.30;99.90;;;;;;4992355;28;20219;-67
2023/03/28 03:09:56;;;;;;;10.80;2.47;;;8.10;99.90;;;;;;4992338;28;20266;-66
2023/03/28 03:12:22;;;;;;;9.93;2.13;;;8.30;99.90;;;;;;4991905;28;20266;-67
2023/03/28 03:14:49;;;;;;;7.93;2.20;;;8.30;99.90;;;;;;4990359;28;20186;-66
2023/03/28 03:17:18;;;;;;;9.83;2.00;;;8.20;99.90;;;;;;4991731;28;20270;-66
2023/03/28 03:19:44;;;;;;;12.03;2.13;;;8.30;99.90;;;;;;4990712;28;20172;-67
2023/03/28 03:22:10;;;;;;;8.10;2.20;;;9.00;99.90;;;;;;4989979;28;20598;-67
2023/03/28 03:24:36;;;;;;;10.97;2.10;;;8.50;99.90;;;;;;4990122;28;20251;-67
2023/03/28 03:27:02;;;;;;;7.17;1.87;;;8.30;99.90;;;;;;4988122;28;20303;-67
2023/03/28 03:29:28;;;;;;;12.07;2.23;;;8.30;99.90;;;;;;4991189;28;20202;-66
2023/03/28 03:31:53;;;;;;;11.70;2.40;;;8.30;99.90;;;;;;4990308;28;20179;-67
2023/03/28 03:34:19;;;;;;;13.13;2.60;;;8.30;99.90;;;;;;4972636;28;20180;-66
2023/03/28 03:36:46;;;;;;;8.20;2.33;;;8.40;99.90;;;;;;4990814;28;20215;-66
2023/03/28 03:39:11;;;;;;;9.57;2.40;;;8.40;99.90;;;;;;4989776;28;20234;-68
2023/03/28 03:41:37;;;;;;;13.20;2.43;;;8.40;99.90;;;;;;4990297;28;20179;-68
2023/03/28 03:44:03;;;;;;;16.97;2.50;;;8.30;99.90;;;;;;4990178;28;20535;-67
2023/03/28 03:46:29;;;;;;;10.83;2.50;;;8.30;99.90;;;;;;4988924;28;20226;-68
2023/03/28 03:48:55;;;;;;;14.83;2.97;;;8.30;99.90;;;;;;4990763;28;20206;-67
2023/03/28 03:51:20;;;;;;;21.30;2.90;;;8.30;99.90;;;;;;4991007;28;20552;-67
2023/03/28 03:53:49;;;;;;;11.17;2.83;;;8.30;99.90;;;;;;4991340;28;20658;-67
2023/03/28 03:56:15;;;;;;;10.20;2.60;;;8.30;99.90;;;;;;4990444;28;20175;-67
2023/03/28 03:58:41;;;;;;;8.30;2.30;;;;;;;;;;4990600;28;20520;-68
2023/03/28 04:01:12;;;;;;;10.87;2.70;;;8.20;99.90;;;;;;4991627;28;20246;-68
2023/03/28 04:03:39;;;;;;;11.20;2.37;;;8.20;99.90;;;;;;4990801;28;20195;-68
2023/03/28 04:06:05;;;;;;;7.97;2.30;;;8.50;99.90;;;;;;4985952;28;20219;-69
2023/03/28 04:08:31;;;;;;;13.83;2.63;;;8.20;99.90;;;;;;4989160;28;20199;-68
2023/03/28 04:10:57;;;;;;;11.70;2.90;;;;;;;;;;4990458;28;20179;-69
2023/03/28 04:13:22;;;;;;;14.60;2.60;;;8.20;99.90;;;;;;4984917;28;20643;-68
2023/03/28 04:15:48;;;;;;;12.17;2.77;;;8.20;99.90;;;;;;4988996;28;20178;-68
2023/03/28 04:18:16;;;;;;;16.67;3.33;;;8.30;99.90;;;;;;4989185;28;20678;-69
2023/03/28 04:20:43;;;;;;;15.00;3.27;;;8.80;99.90;;;;;;4989384;28;20167;-69
2023/03/28 04:23:09;;;;;;;17.53;3.70;;;8.40;99.90;;;;;;4989678;28;20234;-69
2023/03/28 04:25:34;;;;;;;15.17;2.73;;;8.20;99.90;;;;;;4989371;28;20167;-69
2023/03/28 04:28:00;;;;;;;14.73;2.70;;;8.90;99.90;;;;;;4989815;28;20651;-69
2023/03/28 04:30:26;;;;;;;13.17;2.37;;;8.40;99.90;;;;;;4990141;28;20179;-69
2023/03/28 04:32:53;;;;;;;18.83;3.03;;;8.40;99.90;;;;;;4972260;28;20199;-68
2023/03/28 04:35:19;;;;;;;15.33;3.43;;;8.40;99.90;;;;;;4989802;28;20219;-68
2023/03/28 04:37:48;;;;;;;16.60;3.20;;;8.40;99.90;;;;;;4989746;28;20168;-68
2023/03/28 04:40:16;;;;;;;11.60;2.47;;;8.50;99.90;;;;;;4989548;28;20176;-70
2023/03/28 04:42:43;;;;;;;13.73;2.80;;;8.50;99.90;;;;;;4989554;28;20207;-68
2023/03/28 04:45:09;;;;;;;12.30;3.00;;;8.40;99.90;;;;;;4989142;28;20163;-68
2023/03/28 04:47:38;;;;;;;11.73;2.87;;;8.50;99.90;;;;;;4989727;28;20242;-69
2023/03/28 04:50:06;;;;;;;9.80;2.57;;;8.50;99.90;;;;;;4990182;28;20203;-69
2023/03/28 04:52:31;;;;;;;11.73;2.67;;;8.50;99.90;;;;;;4990189;28;20249;-68
2023/03/28 04:54:57;;;;;;;13.13;2.73;;;8.40;99.90;;;;;;4990868;28;20666;-68
2023/03/28 04:57:22;;;;;;;13.77;2.70;;;8.40;99.90;;;;;;4990221;28;20849;-68
2023/03/28 04:59:48;;;;;;;9.27;2.40;;;;;;;;;;4990516;28;20678;-68
2023/03/28 05:02:14;;;;;;;14.13;2.63;;;8.50;99.90;;;;;;4990382;28;20560;-68
2023/03/28 05:04:41;;;;;;;12.23;2.73;;;8.50;99.90;;;;;;4990572;28;20190;-68
2023/03/28 05:07:06;;;;;;;13.07;2.90;;;8.60;99.90;;;;;;4990578;28;20211;-69
2023/03/28 05:09:32;;;;;;;14.60;3.43;;;8.90;99.90;;;;;;4991043;28;20183;-69
2023/03/28 05:11:58;;;;;;;10.10;2.57;;;8.40;99.90;;;;;;4990056;28;20266;-68
2023/03/28 05:14:24;;;;;;;8.33;2.80;;;8.70;99.90;;;;;;4989516;28;20533;-68
2023/03/28 05:16:49;;;;;;;13.33;2.87;;;8.60;99.90;;;;;;4990062;28;20179;-68
2023/03/28 05:19:15;;;;;;;12.23;3.17;;;8.70;99.90;;;;;;4992358;28;20593;-69
2023/03/28 05:21:40;;;;;;;11.57;3.23;;;8.70;99.90;;;;;;4993334;28;20179;-68
2023/03/28 05:24:07;;;;;;;9.73;2.70;;;8.70;99.90;;;;;;4985389;28;20219;-68
2023/03/28 05:26:33;;;;;;;11.23;2.90;;;8.70;99.90;;;;;;4994316;28;20218;-68
2023/03/28 05:28:59;;;;;;;14.63;3.17;;;8.60;99.90;;;;;;4993140;28;20262;-67
2023/03/28 05:31:27;;;;;;;12.50;2.80;;;8.70;99.90;;;;;;4992552;28;20266;-67
2023/03/28 05:33:53;;;;;;;16.93;3.43;;;8.60;99.90;;;;;;4992952;28;20179;-68
2023/03/28 05:36:19;;;;;;;13.57;3.10;;;8.50;99.90;;;;;;4993399;28;20353;-68
2023/03/28 05:38:45;;;;;;;11.83;3.43;;;8.50;99.90;;;;;;4992498;28;20219;-69
2023/03/28 05:41:11;;;;;;;15.80;3.50;;;8.50;99.90;;;;;;4992730;28;20218;-68
2023/03/28 05:43:36;;;;;;;14.47;3.50;;;8.30;99.90;;;;;;4992972;28;20190;-68
2023/03/28 05:46:02;;;;;;;15.37;3.53;;;8.40;99.90;;;;;;4991688;28;20762;-69
2023/03/28 05:48:27;;;;;;;11.17;3.60;;;8.50;99.90;;;;;;4992496;28;20669;-69
2023/03/28 05:50:54;;;;;;;15.97;3.53;;;;;;;;;;4993232;28;20505;-70
2023/03/28 05:53:20;;;;;;;15.20;3.73;;;8.60;99.90;;;;;;4993143;28;20194;-70
2023/03/28 05:55:45;;;;;;;14.13;4.30;;;8.60;99.90;;;;;;4992700;28;20186;-69
2023/03/28 05:58:11;;;;;;;16.87;4.33;;;8.10;99.90;;;;;;4992763;28;20183;-70
2023/03/28 06:00:37;;;;;;;15.27;4.17;;;8.50;99.90;;;;;;4992383;28;20210;-69
2023/03/28 06:03:03;;;;;;;16.57;3.93;;;8.60;99.90;;;;;;4992086;28;20290;-69
2023/03/28 06:05:29;;;;;;;15.93;4.00;;;8.60;99.90;;;;;;4992642;28;20727;-68
2023/03/28 06:07:54;;;;;;;15.47;3.93;;;8.60;99.90;;;;;;4992060;28;20191;-68
2023/03/28 06:10:20;;;;;;;15.23;4.10;;;8.80;99.90;;;;;;4991828;28;20186;-69
2023/03/28 06:12:46;;;;;;;17.40;4.37;;;8.60;99.90;;;;;;4990844;28;20647;-69
2023/03/28 06:15:12;;;;;;;14.40;3.83;;;8.60;99.90;;;;;;4992044;28;20273;-69
2023/03/28 06:17:37;;;;;;;12.13;4.13;;;8.60;99.90;;;;;;4991512;28;20183;-69
2023/03/28 06:20:05;;;;;;;14.43;4.37;;;8.70;99.90;;;;;;4990743;28;20262;-69
2023/03/28 06:22:31;;;;;;;14.60;4.17;;;8.60;99.90;;;;;;4992615;28;20183;-69
2023/03/28 06:24:56;;;;;;;13.17;4.13;;;8.80;99.90;;;;;;4992125;28;20676;-69
2023/03/28 06:27:22;;;;;;;15.57;4.30;;;8.90;99.90;;;;;;4992415;28;20366;-68
2023/03/28 06:29:48;;;;;;;16.90;4.57;;;8.50;99.90;;;;;;4991234;28;20583;-68
2023/03/28 06:32:14;;;;;;;14.77;3.70;;;9.00;99.90;;;;;;4975320;28;20622;-73
2023/03/28 06:34:39;;;;;;;14.37;5.10;;;9.40;99.90;;;;;;4992481;28;20275;-70
2023/03/28 06:37:05;;;;;;;17.33;4.57;;;8.90;99.90;;;;;;4991441;28;20239;-70
2023/03/28 06:39:31;;;;;;;16.60;5.47;;;8.80;99.90;;;;;;4991622;28;20179;-70
2023/03/28 06:41:57;;;;;;;19.47;4.37;;;8.80;99.90;;;;;;4991015;28;20661;-70
2023/03/28 06:44:22;;;;;;;15.83;4.20;;;8.80;99.90;;;;;;4991457;28;20178;-70
2023/03/28 06:46:48;;;;;;;21.00;5.20;;;8.80;99.90;;;;;;4992358;28;20217;-70
2023/03/28 06:49:14;;;;;;;12.03;4.13;;;8.90;99.90;;;;;;4983650;28;20187;-70
2023/03/28 06:51:40;;;;;;;14.30;4.30;;;8.90;99.90;;;;;;4990453;28;20183;-70
2023/03/28 06:54:06;;;;;;;12.90;4.20;;;8.90;99.90;;;;;;4991221;28;20198;-70
2023/03/28 06:56:32;;;;;;;15.27;6.27;;;9.00;99.90;;;;;;4974188;28;20383;-70
2023/03/28 06:58:58;;;;;;;13.80;4.43;;;8.80;99.90;;;;;;4992626;28;20180;-70
2023/03/28 07:01:23;;;;;;;10.27;4.10;;;9.00;99.90;;;;;;4991135;28;20673;-70
2023/03/28 07:03:49;;;;;;;12.63;4.10;;;9.00;99.90;;;;;;4991113;28;20228;-70
2023/03/28 07:06:14;;;;;;;11.57;3.63;;;9.00;99.90;;;;;;4992499;28;20206;-70
2023/03/28 07:08:40;;;;;;;8.00;3.80;;;9.00;99.90;;;;;;4992109;28;20179;-70
2023/03/28 07:11:06;;;;;;;7.37;2.50;;;9.20;99.90;;;;;;4991705;28;20182;-70
2023/03/28 07:13:32;;;;;;;9.03;2.77;;;9.20;99.90;;;;;;4991515;28;20183;-69
2023/03/28 07:16:04;;;;;;;11.73;3.20;;;10.40;99.90;;;;;;4974524;28;20229;-70
2023/03/28 07:18:30;;;;;;;8.43;2.63;;;9.20;99.90;;;;;;4991738;28;20291;-69
2023/03/28 07:20:56;;;;;;;7.47;2.20;;;;;;;;;;4991723;28;20650;-69
2023/03/28 07:23:22;;;;;;;9.70;2.53;;;9.30;99.90;;;;;;4991606;28;20175;-68
2023/03/28 07:25:47;;;;;;;3.60;1.70;;;9.40;99.90;;;;;;4983636;28;20207;-69
2023/03/28 07:28:13;;;;;;;4.70;1.30;;;9.40;99.90;;;;;;4991762;28;20185;-69
2023/03/28 07:30:38;;;;;;;4.10;1.53;;;9.60;99.90;;;;;;4990762;28;20207;-69
2023/03/28 07:33:04;;;;;;;4.73;1.43;;;9.70;99.90;;;;;;4991872;28;20639;-69
2023/03/28 07:35:30;;;;;;;5.13;1.70;;;;;;;;;;4990349;28;20383;-70
2023/03/28 07:37:57;;;;;;;6.93;1.33;;;9.90;99.90;;;;;;4990781;28;20321;-69
2023/03/28 07:40:22;;;;;;;6.87;1.43;;;9.90;99.90;;;;;;4991046;28;20175;-70
2023/03/28 07:42:48;;;;;;;8.83;1.30;;;9.50;99.90;;;;;;4991371;28;20182;-70
2023/03/28 07:45:14;;;;;;;4.97;1.67;;;10.00;99.90;;;;;;4991706;28;20186;-70
2023/03/28 07:47:40;;;;;;;5.07;1.20;;;10.00;99.90;;;;;;4991394;28;20210;-70
2023/03/28 07:50:06;;;;;;;9.13;1.63;;;10.40;99.90;;;;;;4990913;28;20168;-70
2023/03/28 07:52:32;;;;;;;8.97;1.90;;;10.00;99.90;;;;;;4991254;28;20175;-69
2023/03/28 07:54:58;;;;;;;4.33;1.57;;;9.90;99.90;;;;;;4991420;28;20179;-70
2023/03/28 07:57:24;;;;;;;6.47;1.83;;;;;;;;;;4990010;28;20179;-70
2023/03/28 07:59:49;;;;;;;4.63;1.67;;;9.80;99.90;;;;;;4990408;28;20175;-70
2023/03/28 08:02:16;;;;;;;4.60;1.20;;;9.80;99.90;;;;;;4990512;28;20546;-70
2023/03/28 08:04:41;;;;;;;3.20;0.60;;;9.70;99.90;;;;;;4990704;28;20171;-70
2023/03/28 08:07:08;;;;;;;5.57;1.37;;;9.70;99.90;;;;;;4991396;28;20261;-70
2023/03/28 08:09:33;;;;;;;7.27;2.23;;;9.60;99.90;;;;;;4990581;28;20175;-70
2023/03/28 08:11:59;;;;;;;7.37;2.10;;;9.60;99.90;;;;;;4991322;28;20178;-71
2023/03/28 08:14:24;;;;;;;5.53;1.10;;;9.80;99.90;;;;;;4991084;28;20259;-71
2023/03/28 08:16:50;;;;;;;3.93;1.30;;;9.60;99.90;;;;;;4990615;28;20567;-69
2023/03/28 08:19:17;;;;;;;3.97;1.23;;;9.40;99.90;;;;;;4973752;28;20237;-70
2023/03/28 08:21:42;;;;;;;2.50;1.23;;;9.40;99.90;;;;;;4990455;28;20179;-71
2023/03/28 08:24:10;;;;;;;7.43;1.50;;;9.30;99.90;;;;;;4989672;28;20678;-72
2023/03/28 08:26:37;;;;;;;3.87;0.90;;;9.40;99.90;;;;;;4989206;28;20213;-69
2023/03/28 08:29:04;;;;;;;4.27;1.27;;;9.80;99.90;;;;;;4991255;28;20182;-68
2023/03/28 08:31:30;;;;;;;4.80;1.17;;;9.10;99.90;;;;;;4992615;28;20250;-72
2023/03/28 08:33:56;;;;;;;3.97;1.20;;;9.80;99.90;;;;;;4990136;28;20226;-71
2023/03/28 08:36:24;;;;;;;2.80;0.87;;;9.20;99.90;;;;;;4989551;28;20223;-74
2023/03/28 08:38:53;;;;;;;5.60;1.17;;;9.10;99.90;;;;;;4990711;28;20198;-72
2023/03/28 08:41:46;;;;;;;6.20;1.33;;;9.00;99.90;;;;;;4990090;28;20176;-73
2023/03/28 08:44:18;;;;;;;5.90;1.50;;;9.00;99.90;;;;;;4986136;28;20182;-71
2023/03/28 08:46:48;;;;;;;11.33;1.97;;;9.10;99.90;;;;;;4990656;28;20553;-71
2023/03/28 08:49:17;;;;;;;6.40;1.50;;;9.20;99.90;;;;;;4955741;28;20190;-70
2023/03/28 08:51:47;;;;;;;9.17;1.60;;;9.10;99.90;;;;;;4958556;28;20611;-73
2023/03/28 08:54:31;;;;;;;5.13;1.57;;;8.70;99.90;;;;;;4993257;28;20232;-72
2023/03/28 08:57:01;;;;;;;2.43;1.17;;;9.10;99.90;;;;;;4993396;28;20234;-71
2023/03/28 08:59:42;;;;;;;8.87;1.47;;;9.00;99.90;;;;;;4995012;28;20254;-71
2023/03/28 09:02:17;;;;;;;5.73;1.40;;;9.00;99.90;;;;;;4994986;28;20176;-72
2023/03/28 09:04:43;;;;;;;5.37;1.20;;;;;;;;;;4993619;28;20209;-73
2023/03/28 09:07:47;;;;;;;1.43;0.60;;;9.00;99.90;;;;;;4993067;28;20245;-72
2023/03/28 09:10:18;;;;;;;6.70;1.23;;;9.00;99.90;;;;;;4992342;28;20202;-71
2023/03/28 09:12:58;;;;;;;7.53;1.33;;;9.00;99.90;;;;;;4992771;28;20180;-72
2023/03/28 09:15:31;;;;;;;3.80;1.00;;;9.00;99.90;;;;;;4993895;28;20245;-71
2023/03/28 09:18:27;;;;;;;8.10;1.50;;;9.30;99.90;;;;;;4993223;28;20187;-71
2023/03/28 09:21:15;;;;;;;5.70;1.20;;;9.00;99.90;;;;;;4993985;28;20177;-71
2023/03/28 09:23:52;;;;;;;2.87;1.20;;;9.20;99.90;;;;;;4984633;28;20179;-72
2023/03/28 09:26:34;;;;;;;3.20;1.00;;;9.10;99.90;;;;;;4980584;28;20564;-71
2023/03/28 09:29:16;;;;;;;5.97;1.47;;;9.10;99.90;;;;;;4993654;28;20179;-70
2023/03/28 09:31:51;;;;;;;2.60;1.00;;;9.10;99.90;;;;;;4993667;28;20179;-71
2023/03/28 09:34:27;;;;;;;7.37;1.37;;;9.00;99.90;;;;;;4991272;28;20175;-70
2023/03/28 09:36:59;;;;;;;3.37;1.30;;;9.10;99.90;;;;;;4992830;28;20218;-71
2023/03/28 09:39:51;;;;;;;4.97;1.40;;;8.60;99.90;;;;;;4993222;28;20194;-70
2023/03/28 09:42:46;;;;;;;5.27;1.10;;;9.10;99.90;;;;;;4992029;28;20345;-70
2023/03/28 09:45:12;;;;;;;4.67;1.20;;;;;;;;;;4972973;28;20180;-71
2023/03/28 09:47:38;;;;;;;5.10;1.20;;;;;;;;;;4984304;28;20214;-70
2023/03/28 09:50:05;;;;;;;7.20;1.33;;;9.10;99.90;;;;;;4992241;28;20217;-68
2023/03/28 09:52:31;;;;;;;6.63;1.23;;;9.10;99.90;;;;;;4992002;28;20190;-68
2023/03/28 09:54:59;;;;;;;4.73;1.23;;;9.00;99.90;;;;;;4991790;28;20183;-69
2023/03/28 09:57:24;;;;;;;12.87;1.50;;;9.10;99.90;;;;;;4992984;28;20204;-69
2023/03/28 09:59:50;;;;;;;5.43;1.30;;;9.30;99.90;;;;;;4992163;28;20681;-71
2023/03/28 10:02:28;;;;;;;7.93;1.77;;;9.10;99.90;;;;;;4992236;28;20175;-68
2023/03/28 10:04:54;;;;;;;6.27;0.77;;;;;;;;;;4992573;28;20182;-69
2023/03/28 10:07:33;;;;;;;7.63;1.53;;;9.10;99.90;;;;;;4993143;28;20613;-68
2023/03/28 10:10:18;;;;;;;4.37;1.40;;;9.20;99.90;;;;;;4992972;28;20218;-67
2023/03/28 10:12:47;;;;;;;7.37;1.87;;;9.30;99.90;;;;;;4993056;28;20172;-70
2023/03/28 10:15:38;;;;;;;10.13;1.70;;;10.50;99.90;;;;;;4992694;28;20704;-68
2023/03/28 10:18:04;;;;;;;11.03;1.80;;;9.40;99.90;;;;;;4992808;28;20229;-68
2023/03/28 10:20:36;;;;;;;8.53;1.80;;;9.30;99.90;;;;;;4992087;28;20183;-68
2023/03/28 10:23:02;;;;;;;8.17;1.83;;;9.40;99.90;;;;;;4994791;28;20175;-67
2023/03/28 10:25:36;;;;;;;11.87;2.00;;;9.40;99.90;;;;;;4990670;28;20262;-68
2023/03/28 10:28:04;;;;;;;5.13;1.23;;;9.40;99.90;;;;;;4992546;28;20210;-69
2023/03/28 10:30:32;;;;;;;13.17;1.80;;;9.50;99.90;;;;;;4975036;28;20175;-70
2023/03/28 10:33:16;;;;;;;4.77;1.53;;;9.50;99.90;;;;;;4992703;28;20175;-69
2023/03/28 10:35:45;;;;;;;6.30;1.30;;;9.50;99.90;;;;;;4992067;28;20237;-68
2023/03/28 10:38:16;;;;;;;6.47;1.70;;;10.40;99.90;;;;;;4988667;28;20663;-70
2023/03/28 10:41:19;;;;;;;8.60;1.77;;;9.50;99.90;;;;;;4982165;28;20179;-69
2023/03/28 10:43:44;;;;;;;11.00;1.83;;;9.50;99.90;;;;;;4978635;28;20210;-69
2023/03/28 10:46:36;;;;;;;13.43;2.00;;;9.50;99.90;;;;;;4972389;28;20258;-69
2023/03/28 10:49:12;;;;;;;3.67;1.23;;;9.50;99.90;;;;;;4985360;28;20218;-69
2023/03/28 10:51:40;;;;;;;8.00;1.63;;;9.80;99.90;;;;;;4991977;28;20206;-69
2023/03/28 10:54:09;;;;;;;10.60;1.73;;;9.60;99.90;;;;;;4992375;28;20176;-69
2023/03/28 10:56:51;;;;;;;10.27;1.87;;;9.70;99.90;;;;;;4991688;28;20179;-68
2023/03/28 10:59:53;;;;;;;8.87;2.00;;;9.70;99.90;;;;;;4991469;28;20178;-68
2023/03/28 11:02:32;;;;;;;7.67;1.47;;;9.70;99.90;;;;;;4981784;28;20201;-70
2023/03/28 11:05:01;;;;;;;12.90;2.27;;;9.70;99.90;;;;;;4991853;28;20175;-68
2023/03/28 11:07:40;;;;;;;8.40;1.63;;;10.00;99.90;;;;;;4991051;28;20430;-68
2023/03/28 11:10:05;;;;;;;8.60;1.57;;;9.80;99.90;;;;;;4991224;28;20262;-68
2023/03/28 11:12:54;;;;;;;11.37;1.63;;;9.80;99.90;;;;;;4990319;28;20262;-69
2023/03/28 11:15:53;;;;;;;9.83;1.80;;;9.80;99.90;;;;;;4990702;28;20186;-69
2023/03/28 11:18:29;;;;;;;7.23;1.90;;;10.00;99.90;;;;;;4992077;28;20190;-68
2023/03/28 11:21:14;;;;;;;7.03;1.43;;;9.90;99.90;;;;;;4992503;28;20257;-68
2023/03/28 11:23:47;;;;;;;5.27;1.00;;;9.90;99.90;;;;;;4992259;28;20226;-70
2023/03/28 11:26:24;;;;;;;12.93;2.30;;;10.00;99.90;;;;;;4992713;28;20203;-68
2023/03/28 11:29:04;;;;;;;7.60;1.60;;;10.00;99.90;;;;;;4992300;28;20174;-67
2023/03/28 11:31:36;;;;;;;10.43;1.57;;;10.30;99.90;;;;;;4992329;28;20764;-67
2023/03/28 11:34:14;;;;;;;12.90;1.70;;;10.20;99.90;;;;;;4973538;28;20546;-68
2023/03/28 11:36:58;;;;;;;8.83;1.90;;;10.20;99.90;;;;;;4991464;28;20697;-68
2023/03/28 11:39:46;;;;;;;8.97;1.90;;;10.10;99.90;;;;;;4991924;28;20189;-68
2023/03/28 11:42:19;;;;;;;12.33;1.83;;;10.10;99.90;;;;;;4991815;28;20186;-68
2023/03/28 11:44:54;;;;;;;8.77;1.63;;;10.10;99.90;;;;;;4974398;28;20241;-69
2023/03/28 11:47:36;;;;;;;8.67;1.50;;;10.10;99.90;;;;;;4991783;28;20218;-69
2023/03/28 11:50:05;;;;;;;9.50;1.87;;;10.00;99.90;;;;;;4991895;28;20175;-68
2023/03/28 11:52:38;;;;;;;7.60;1.77;;;10.10;99.90;;;;;;4991908;28;20196;-69
2023/03/28 11:55:23;;;;;;;7.43;1.60;;;10.10;99.90;;;;;;4974358;28;20186;-69
2023/03/28 11:57:53;;;;;;;12.70;2.20;;;10.00;99.90;;;;;;4991778;28;20185;-68
2023/03/28 12:00:52;;;;;;;12.87;1.70;;;10.10;99.90;;;;;;4988755;28;20302;-68
2023/03/28 12:03:41;;;;;;;8.93;1.30;;;10.10;99.90;;;;;;4985278;28;20187;-68
2023/03/28 12:06:26;;;;;;;10.23;2.20;;;10.10;99.90;;;;;;4970252;28;20682;-68
2023/03/28 12:09:33;;;;;;;9.90;1.93;;;10.10;99.90;;;;;;4972469;28;20179;-69
2023/03/28 12:12:15;;;;;;;11.00;1.87;;;10.00;99.90;;;;;;4971882;28;20207;-69
2023/03/28 12:14:54;;;;;;;9.03;1.50;;;10.00;99.90;;;;;;4972247;28;20176;-69
2023/03/28 12:17:28;;;;;;;10.23;1.90;;;10.10;99.90;;;;;;4972081;28;20244;-69
2023/03/28 12:19:55;;;;;;;10.87;1.30;;;10.20;99.90;;;;;;4988679;28;20669;-68
2023/03/28 12:22:52;;;;;;;8.23;1.70;;;10.10;99.90;;;;;;4991494;28;20776;-68
2023/03/28 12:25:30;;;;;;;6.37;1.47;;;10.20;99.90;;;;;;4988656;28;20191;-68
2023/03/28 12:28:10;;;;;;;8.17;1.50;;;10.10;99.90;;;;;;4994682;28;20206;-68
2023/03/28 12:30:55;;;;;;;5.50;0.83;;;10.40;99.90;;;;;;4995472;28;20225;-69
2023/03/28 12:33:43;;;;;;;4.80;0.90;;;10.40;99.90;;;;;;4995474;28;20178;-68
2023/03/28 12:36:53;;;;;;;5.60;0.87;;;10.40;99.90;;;;;;4995270;28;20293;-68
2023/03/28 12:39:43;;;;;;;11.90;1.43;;;10.90;99.90;;;;;;4935294;29;20176;-68
2023/03/28 12:42:13;;;;;;;7.50;1.80;;;10.50;99.90;;;;;;4995401;28;20234;-69
2023/03/28 12:44:48;;;;;;;9.13;1.40;;;10.50;99.90;;;;;;4995340;28;20167;-68
2023/03/28 12:47:24;;;;;;;5.70;0.70;;;10.30;99.90;;;;;;4995186;28;20206;-69
2023/03/28 12:50:02;;;;;;;9.87;1.40;;;10.20;99.90;;;;;;4995098;28;20175;-68
2023/03/28 12:52:32;;;;;;;7.27;1.57;;;10.00;99.90;;;;;;4995261;28;20262;-69
2023/03/28 12:55:06;;;;;;;6.60;1.43;;;10.00;99.90;;;;;;4995367;28;20653;-70
2023/03/28 12:57:44;;;;;;;10.13;2.03;;;10.10;99.90;;;;;;4995170;28;20225;-69
2023/03/28 13:00:15;;;;;;;11.07;1.53;;;10.20;99.90;;;;;;4995010;28;20197;-69
2023/03/28 13:03:04;;;;;;;12.50;1.70;;;10.10;99.90;;;;;;4995010;28;20205;-71
2023/03/28 13:05:38;;;;;;;5.97;1.40;;;9.90;99.90;;;;;;4994958;28;20183;-70
2023/03/28 13:08:31;;;;;;;10.10;1.87;;;9.90;99.90;;;;;;4994828;28;20273;-71
2023/03/28 13:11:26;;;;;;;10.13;1.80;;;9.90;99.90;;;;;;4994875;28;20183;-68
2023/03/28 13:13:55;;;;;;;6.80;1.47;;;10.10;99.90;;;;;;4994920;28;20233;-68
2023/03/28 13:17:00;;;;;;;6.97;1.93;;;10.30;99.90;;;;;;4994818;28;20229;-69
2023/03/28 13:19:36;;;;;;;9.00;1.60;;;10.30;99.90;;;;;;4994725;28;20179;-68
2023/03/28 13:22:02;;;;;;;10.40;1.80;;;10.30;99.90;;;;;;4994707;28;20241;-69